Time;durP1;ratioP1;P1;durP2;ratioP2;P2;SDS_P1;SDS_P2;PMS_P1;PMS_P2;Temp;Humidity;BMP_temperature;BMP_pressure;BME280_temperature;BME280_humidity;BME280_pressure;Samples;Min_cycle;Max_cycle;Signal;HPM_P1;HPM_P2
2024/03/07 00:02:11;;;;;;;;;;;23.20;60.30;;;;;;5074435;28;19920;-37
2024/03/07 00:04:37;;;;;;;;;;;23.20;60.20;;;;;;5075566;28;19908;-36
2024/03/07 00:07:03;;;;;;;;;;;23.20;60.70;;;;;;5072860;28;19912;-37
2024/03/07 00:09:32;;;;;;;;;;;23.20;60.90;;;;;;5067232;28;19916;-38
2024/03/07 00:11:58;;;;;;;;;;;23.20;60.30;;;;;;5073170;28;19916;-36
2024/03/07 00:14:26;;;;;;;;;;;23.20;60.10;;;;;;5071965;28;19922;-37
2024/03/07 00:16:53;;;;;;;;;;;23.20;60.30;;;;;;5071843;28;19999;-36
2024/03/07 00:19:19;;;;;;;;;;;23.20;59.80;;;;;;5075330;28;20041;-36
2024/03/07 00:21:44;;;;;;;;;;;23.20;59.60;;;;;;5071852;28;19967;-37
2024/03/07 00:24:10;;;;;;;;;;;23.20;59.90;;;;;;5067823;28;19920;-36
2024/03/07 00:26:36;;;;;;;;;;;23.20;59.90;;;;;;5074952;28;19917;-36
2024/03/07 00:29:02;;;;;;;;;;;23.20;59.90;;;;;;5076502;28;19912;-36
2024/03/07 00:31:30;;;;;;;;;;;23.20;59.70;;;;;;5074067;28;19931;-37
2024/03/07 00:33:56;;;;;;;;;;;23.20;59.40;;;;;;5076711;28;19917;-36
2024/03/07 00:36:22;;;;;;;;;;;23.20;59.50;;;;;;5074524;28;19926;-38
2024/03/07 00:38:48;;;;;;;;;;;23.20;59.30;;;;;;5068774;28;19925;-38
2024/03/07 00:41:15;;;;;;;;;;;23.20;59.30;;;;;;5073208;28;20449;-37
2024/03/07 00:43:41;;;;;;;;;;;23.20;59.00;;;;;;5073043;28;19958;-37
2024/03/07 00:46:08;;;;;;;;;;;23.20;58.90;;;;;;5077094;28;20418;-37
2024/03/07 00:48:34;;;;;;;;;;;23.20;59.70;;;;;;5079088;28;19931;-37
2024/03/07 00:51:01;;;;;;;;;;;23.20;59.50;;;;;;5083893;28;19912;-37
2024/03/07 00:53:27;;;;;;;;;;;23.20;59.40;;;;;;5079970;28;19966;-36
2024/03/07 00:55:53;;;;;;;;;;;23.20;59.30;;;;;;5074232;28;19912;-36
2024/03/07 00:58:21;;;;;;;;;;;23.20;59.30;;;;;;5071867;28;19912;-37
2024/03/07 01:00:49;;;;;;;;;;;23.20;59.10;;;;;;5074045;28;19916;-35
2024/03/07 01:03:17;;;;;;;;;;;23.20;59.00;;;;;;5079440;28;19934;-37
2024/03/07 01:05:43;;;;;;;;;;;23.20;58.90;;;;;;5069943;28;19916;-38
2024/03/07 01:08:11;;;;;;;;;;;23.20;58.90;;;;;;5067102;28;20007;-37
2024/03/07 01:10:37;;;;;;;;;;;23.20;59.60;;;;;;5073225;28;19919;-35
2024/03/07 01:13:07;;;;;;;;;;;23.20;59.20;;;;;;5080708;28;19976;-38
2024/03/07 01:15:38;;;;;;;2.00;0.40;;;23.30;59.00;;;;;;5081872;28;19983;-51
2024/03/07 01:18:05;;;;;;;;;;;23.30;59.10;;;;;;5084195;28;19922;-38
2024/03/07 01:20:35;;;;;;;;;;;23.20;59.10;;;;;;5084301;28;19920;-40
2024/03/07 01:23:02;;;;;;;;;;;23.20;59.00;;;;;;5078786;28;19934;-37
2024/03/07 01:25:28;;;;;;;;;;;23.20;59.00;;;;;;5079163;28;20086;-39
2024/03/07 01:28:00;;;;;;;;;;;23.20;59.00;;;;;;5084353;28;19908;-38
2024/03/07 01:30:28;;;;;;;;;;;23.20;58.90;;;;;;5082184;28;20594;-38
2024/03/07 01:32:55;;;;;;;;;;;23.10;58.80;;;;;;5084771;28;19982;-38
2024/03/07 01:35:23;;;;;;;;;;;23.10;58.80;;;;;;5083794;28;19978;-39
2024/03/07 01:37:49;;;;;;;;;;;23.20;58.60;;;;;;5079883;28;19912;-39
2024/03/07 01:40:16;;;;;;;;;;;23.20;58.60;;;;;;5072512;28;19920;-39
2024/03/07 01:42:47;;;;;;;;;;;23.10;58.60;;;;;;5077703;28;19955;-38
2024/03/07 01:45:13;;;;;;;;;;;23.10;58.50;;;;;;5079277;28;19934;-39
2024/03/07 01:47:40;;;;;;;;;;;23.10;58.60;;;;;;5083407;28;19912;-38
2024/03/07 01:50:09;;;;;;;;;;;23.10;58.60;;;;;;5081107;28;20390;-38
2024/03/07 01:52:39;;;;;;;;;;;23.00;58.50;;;;;;5076792;28;20427;-40
2024/03/07 01:55:11;;;;;;;;;;;23.00;58.50;;;;;;5081444;28;19943;-40
2024/03/07 01:57:38;;;;;;;;;;;23.00;58.50;;;;;;5076694;28;20008;-39
2024/03/07 02:00:09;;;;;;;;;;;23.10;58.40;;;;;;5078181;28;19923;-38
2024/03/07 02:02:37;;;;;;;;;;;23.10;58.30;;;;;;5083373;28;19966;-39
2024/03/07 02:05:10;;;;;;;;;;;23.00;58.30;;;;;;5081896;28;20002;-40
2024/03/07 02:07:38;;;;;;;;;;;23.00;58.30;;;;;;5078097;28;19912;-39
2024/03/07 02:10:05;;;;;;;;;;;23.00;58.30;;;;;;5083741;28;19934;-38
2024/03/07 02:12:32;;;;;;;;;;;22.90;58.30;;;;;;5075939;28;19912;-39
2024/03/07 02:15:04;;;;;;;;;;;22.90;58.30;;;;;;5082523;28;20458;-39
2024/03/07 02:17:32;;;;;;;;;;;22.90;58.20;;;;;;5083339;28;19913;-37
2024/03/07 02:19:58;;;;;;;;;;;23.00;58.30;;;;;;5083425;28;19916;-38
2024/03/07 02:22:26;;;;;;;;;;;23.00;58.20;;;;;;5070433;28;19943;-38
2024/03/07 02:24:53;;;;;;;;;;;23.00;58.20;;;;;;5078736;28;19944;-38
2024/03/07 02:27:22;;;;;;;;;;;22.90;58.10;;;;;;5073908;28;19912;-40
2024/03/07 02:29:51;;;;;;;;;;;22.90;58.20;;;;;;5083291;28;19908;-39
2024/03/07 02:32:23;;;;;;;;;;;22.90;58.20;;;;;;5080224;28;19914;-38
2024/03/07 02:34:50;;;;;;;;;;;22.80;58.10;;;;;;5079807;28;20490;-39
2024/03/07 02:37:18;;;;;;;;;;;22.80;58.70;;;;;;5080522;28;20359;-38
2024/03/07 02:39:45;;;;;;;;;;;22.90;58.10;;;;;;5078973;28;19921;-39
2024/03/07 02:42:11;;;;;;;;;;;22.90;58.10;;;;;;5077717;28;19918;-39
2024/03/07 02:44:44;;;;;;;;;;;22.90;58.10;;;;;;5082534;28;19908;-38
2024/03/07 02:47:14;;;;;;;;;;;22.90;58.10;;;;;;5087378;28;19931;-39
2024/03/07 02:49:40;;;;;;;;;;;22.80;58.10;;;;;;5082545;28;19912;-37
2024/03/07 02:52:07;;;;;;;;;;;22.80;58.10;;;;;;5082560;28;19908;-38
2024/03/07 02:54:35;;;;;;;;;;;22.80;58.00;;;;;;5078708;28;20020;-38
2024/03/07 02:57:02;;;;;;;;;;;22.70;58.00;;;;;;5069778;28;19912;-38
2024/03/07 02:59:28;;;;;;;;;;;22.80;58.00;;;;;;5072872;28;19931;-39
2024/03/07 03:01:55;;;;;;;;;;;22.80;58.00;;;;;;5075488;28;19939;-39
2024/03/07 03:04:22;;;;;;;;;;;22.80;58.00;;;;;;5083959;28;19930;-40
2024/03/07 03:06:51;;;;;;;;;;;22.80;58.00;;;;;;5083928;28;20361;-39
2024/03/07 03:09:17;;;;;;;;;;;22.80;58.00;;;;;;5083324;28;19912;-39
2024/03/07 03:11:47;;;;;;;;;;;22.80;58.00;;;;;;5064637;28;20015;-39
2024/03/07 03:14:16;;;;;;;;;;;22.70;57.90;;;;;;5073098;28;19950;-39
2024/03/07 03:16:44;;;;;;;;;;;22.70;58.00;;;;;;5075763;28;19908;-42
2024/03/07 03:19:13;;;;;;;;;;;22.80;58.00;;;;;;5068316;28;20047;-43
2024/03/07 03:21:40;;;;;;;;;;;22.80;57.90;;;;;;5072933;28;19976;-38
2024/03/07 03:24:07;;;;;;;;;;;22.80;57.90;;;;;;5069153;28;19909;-38
2024/03/07 03:26:33;;;;;;;;;;;22.70;58.00;;;;;;5073790;28;19934;-39
2024/03/07 03:29:00;;;;;;;;;;;22.70;57.90;;;;;;5072395;28;19982;-38
2024/03/07 03:31:27;;;;;;;;;;;22.70;57.90;;;;;;5074281;28;19931;-38
2024/03/07 03:33:54;;;;;;;;;;;22.70;57.90;;;;;;5075721;28;19908;-40
2024/03/07 03:36:20;;;;;;;;;;;22.70;57.90;;;;;;5077237;28;19920;-39
2024/03/07 03:38:47;;;;;;;;;;;22.70;57.90;;;;;;5071219;28;19922;-39
2024/03/07 03:41:17;;;;;;;;;;;22.70;57.80;;;;;;5064808;28;19917;-39
2024/03/07 03:43:43;;;;;;;;;;;22.70;57.80;;;;;;5063798;28;19975;-39
2024/03/07 03:46:14;;;;;;;;;;;22.70;57.80;;;;;;5086927;28;19971;-39
2024/03/07 03:48:40;;;;;;;;;;;22.70;57.80;;;;;;5064709;28;20458;-38
2024/03/07 03:51:08;;;;;;;;;;;22.70;57.80;;;;;;5069419;28;20256;-38
2024/03/07 03:53:37;;;;;;;;;;;22.60;57.80;;;;;;5065940;28;19914;-38
2024/03/07 03:56:06;;;;;;;;;;;22.70;57.90;;;;;;5063042;28;19913;-39
2024/03/07 03:58:32;;;;;;;;;;;22.70;57.80;;;;;;5064137;28;19912;-39
2024/03/07 04:01:12;;;;;;;;;;;22.70;57.80;;;;;;5064561;28;19917;-39
2024/03/07 04:03:42;;;;;;;;;;;22.70;57.80;;;;;;5073891;28;19954;-38
2024/03/07 04:06:09;;;;;;;;;;;22.60;57.80;;;;;;5071555;28;19912;-39
2024/03/07 04:08:36;;;;;;;;;;;22.60;57.80;;;;;;5074078;28;19998;-38
2024/03/07 04:11:03;;;;;;;;;;;22.60;57.80;;;;;;5075756;28;19919;-38
2024/03/07 04:13:30;;;;;;;;;;;22.60;58.30;;;;;;5080730;28;19916;-39
2024/03/07 04:15:56;;;;;;;;;;;22.70;57.80;;;;;;5082032;28;19946;-40
2024/03/07 04:18:23;;;;;;;;;;;22.70;57.70;;;;;;5066737;28;19913;-39
2024/03/07 04:20:49;;;;;;;;;;;22.70;57.70;;;;;;5103054;28;19921;-39
2024/03/07 04:23:15;;;;;;;;;;;22.60;57.70;;;;;;5071690;28;20003;-38
2024/03/07 04:25:41;;;;;;;;;;;22.60;57.80;;;;;;5063553;28;19972;-38
2024/03/07 04:28:08;;;;;;;;;;;22.60;57.70;;;;;;5071136;28;19954;-38
2024/03/07 04:30:35;;;;;;;;;;;22.60;57.70;;;;;;5077300;28;19981;-38
2024/03/07 04:33:01;;;;;;;;;;;22.60;57.70;;;;;;5079194;28;19912;-38
2024/03/07 04:35:27;;;;;;;;;;;22.60;57.60;;;;;;5068454;28;19923;-38
2024/03/07 04:37:54;;;;;;;;;;;22.60;57.60;;;;;;5074002;28;19908;-39
2024/03/07 04:40:21;;;;;;;;;;;22.60;57.60;;;;;;5070015;28;19920;-38
2024/03/07 04:42:49;;;;;;;;;;;22.60;57.60;;;;;;5069309;28;19947;-37
2024/03/07 04:45:15;;;;;;;;;;;22.50;57.60;;;;;;5067548;28;19983;-39
2024/03/07 04:47:41;;;;;;;;;;;22.50;57.60;;;;;;5085589;28;19982;-39
2024/03/07 04:50:10;;;;;;;;;;;22.60;57.60;;;;;;5081086;28;19954;-39
2024/03/07 04:52:40;;;;;;;;;;;22.60;57.60;;;;;;5082349;28;19909;-42
2024/03/07 04:55:08;;;;;;;;;;;22.60;57.60;;;;;;5065926;28;19924;-37
2024/03/07 04:57:39;;;;;;;;;;;22.60;57.60;;;;;;5069406;28;19920;-38
2024/03/07 05:00:19;;;;;;;;;;;22.50;57.60;;;;;;5084418;28;19931;-39
2024/03/07 05:02:45;;;;;;;;;;;22.50;57.60;;;;;;5076492;28;19916;-40
2024/03/07 05:05:12;;;;;;;;;;;22.50;57.60;;;;;;5078139;28;19912;-38
2024/03/07 05:07:39;;;;;;;;;;;22.60;57.60;;;;;;5084143;28;19912;-38
2024/03/07 05:10:06;;;;;;;;;;;22.60;57.60;;;;;;5078023;28;19963;-38
2024/03/07 05:12:32;;;;;;;;;;;22.60;57.50;;;;;;5075326;28;19912;-39
2024/03/07 05:14:58;;;;;;;;;;;22.50;57.50;;;;;;5079331;28;20344;-39
2024/03/07 05:17:24;;;;;;;;;;;22.50;57.60;;;;;;5083724;28;19919;-39
2024/03/07 05:19:50;;;;;;;;;;;22.50;57.60;;;;;;5082506;28;19987;-40
2024/03/07 05:22:18;;;;;;;;;;;22.50;57.50;;;;;;5083194;28;19927;-40
2024/03/07 05:24:43;;;;;;;;;;;22.60;57.50;;;;;;5071284;28;19916;-38
2024/03/07 05:27:12;;;;;;;;;;;22.60;57.50;;;;;;5079750;28;19912;-38
2024/03/07 05:29:38;;;;;;;;;;;22.50;57.50;;;;;;5083721;28;19912;-40
2024/03/07 05:32:26;;;;;;;;;;;22.50;57.50;;;;;;5084147;28;20265;-39
2024/03/07 05:34:53;;;;;;;;;;;22.50;57.50;;;;;;5075003;28;19908;-39
2024/03/07 05:37:22;;;;;;;;;;;22.50;57.50;;;;;;5083482;28;19984;-37
2024/03/07 05:39:48;;;;;;;;;;;22.50;57.50;;;;;;5083071;28;19916;-38
2024/03/07 05:42:14;;;;;;;;;;;22.50;57.50;;;;;;5083635;28;19913;-38
2024/03/07 05:44:41;;;;;;;;;;;22.50;57.40;;;;;;5083583;28;19920;-39
2024/03/07 05:47:07;;;;;;;;;;;22.50;57.50;;;;;;5084652;28;19912;-40
2024/03/07 05:49:33;;;;;;;;;;;22.50;57.50;;;;;;5081360;28;19912;-39
2024/03/07 05:52:00;;;;;;;;;;;22.50;57.50;;;;;;5073823;28;19983;-38
2024/03/07 05:54:25;;;;;;;;;;;22.50;57.50;;;;;;5079877;28;19920;-39
2024/03/07 05:56:51;;;;;;;;;;;22.50;57.40;;;;;;5084286;28;19913;-40
2024/03/07 05:59:17;;;;;;;;;;;22.50;57.40;;;;;;5080198;28;19974;-39
2024/03/07 06:01:43;;;;;;;;;;;22.50;57.40;;;;;;5081924;28;20431;-38
2024/03/07 06:04:10;;;;;;;;;;;22.50;57.40;;;;;;5076731;28;20245;-39
2024/03/07 06:06:36;;;;;;;;;;;22.50;57.40;;;;;;5082464;28;19908;-38
2024/03/07 06:09:07;;;;;;;;;;;22.40;57.40;;;;;;5078137;28;20449;-42
2024/03/07 06:11:33;;;;;;;;;;;22.50;57.40;;;;;;5081773;28;19908;-38
2024/03/07 06:14:02;;;;;;;;;;;22.50;57.40;;;;;;5083188;28;19912;-38
2024/03/07 06:16:32;;;;;;;;;;;22.50;57.30;;;;;;5076028;28;20536;-38
2024/03/07 06:19:01;;;;;;;;;;;22.50;57.30;;;;;;5083148;28;19975;-38
2024/03/07 06:21:27;;;;;;;;;;;22.50;57.30;;;;;;5078211;28;19927;-38
2024/03/07 06:23:59;;;;;;;;;;;22.40;57.30;;;;;;5080189;28;19912;-38
2024/03/07 06:26:37;;;;;;;;;;;22.40;57.30;;;;;;5082464;28;19961;-38
2024/03/07 06:29:05;;;;;;;;;;;22.40;57.20;;;;;;5073254;28;20372;-38
2024/03/07 06:31:31;;;;;;;;;;;22.50;57.20;;;;;;5074259;28;19912;-39
2024/03/07 06:33:57;;;;;;;;;;;22.50;57.20;;;;;;5073127;28;19999;-39
2024/03/07 06:36:24;;;;;;;;;;;22.50;57.20;;;;;;5075768;28;19951;-39
2024/03/07 06:38:49;;;;;;;;;;;22.40;57.10;;;;;;5081863;28;19912;-39
2024/03/07 06:41:15;;;;;;;;;;;22.40;57.20;;;;;;5082885;28;19920;-39
2024/03/07 06:43:42;;;;;;;;;;;22.40;57.20;;;;;;5068377;28;19939;-39
2024/03/07 06:46:09;;;;;;;;;;;22.50;57.20;;;;;;5070440;28;19905;-37
2024/03/07 06:48:35;;;;;;;;;;;22.50;57.10;;;;;;5077773;28;19980;-39
2024/03/07 06:51:01;;;;;;;;;;;22.50;57.20;;;;;;5080263;28;19971;-39
2024/03/07 06:53:28;;;;;;;;;;;22.40;57.10;;;;;;5075396;28;19951;-38
2024/03/07 06:55:55;;;;;;;;;;;22.40;57.10;;;;;;5071829;28;19912;-38
2024/03/07 06:58:20;;;;;;;;;;;22.40;57.10;;;;;;5077528;28;19915;-38
2024/03/07 07:00:46;;;;;;;;;;;22.40;57.20;;;;;;5073953;28;19920;-38
2024/03/07 07:03:14;;;;;;;;;;;22.40;57.10;;;;;;5077099;28;20428;-39
2024/03/07 07:05:40;;;;;;;;;;;22.40;57.10;;;;;;5074238;28;20292;-38
2024/03/07 07:08:06;;;;;;;;;;;22.40;57.00;;;;;;5076083;28;19931;-40
2024/03/07 07:10:32;;;;;;;;;;;22.40;57.10;;;;;;5071167;28;19912;-38
2024/03/07 07:12:58;;;;;;;;;;;22.40;57.10;;;;;;5070391;28;19913;-40
2024/03/07 07:15:24;;;;;;;;;;;22.40;57.10;;;;;;5077939;28;20020;-42
2024/03/07 07:17:50;;;;;;;;;;;22.40;57.10;;;;;;5077020;28;19943;-39
2024/03/07 07:20:16;;;;;;;;;;;22.40;57.00;;;;;;5080095;28;19935;-40
2024/03/07 07:22:45;;;;;;;;;;;22.40;57.00;;;;;;5075207;28;19931;-38
2024/03/07 07:25:14;;;;;;;;;;;22.40;57.00;;;;;;5075674;28;20364;-38
2024/03/07 07:27:42;;;;;;;;;;;22.40;57.00;;;;;;5078979;28;19912;-38
2024/03/07 07:30:08;;;;;;;;;;;22.30;57.00;;;;;;5077792;28;19913;-39
2024/03/07 07:32:34;;;;;;;;;;;22.30;57.00;;;;;;5072188;28;19912;-40
2024/03/07 07:35:00;;;;;;;;;;;22.40;57.00;;;;;;5074915;28;19944;-40
2024/03/07 07:37:26;;;;;;;;;;;22.40;57.00;;;;;;5070752;28;19912;-38
2024/03/07 07:39:52;;;;;;;;;;;22.40;56.90;;;;;;5071091;28;19931;-38
2024/03/07 07:42:17;;;;;;;;;;;22.40;56.90;;;;;;5069781;28;19909;-39
2024/03/07 07:44:43;;;;;;;;;;;22.40;57.00;;;;;;5069559;28;19912;-38
2024/03/07 07:47:10;;;;;;;;;;;22.30;57.00;;;;;;5077580;28;19935;-37
2024/03/07 07:49:38;;;;;;;;;;;22.30;57.00;;;;;;5075156;28;19928;-39
2024/03/07 07:52:04;;;;;;;;;;;22.40;56.90;;;;;;5074409;28;19919;-38
2024/03/07 07:54:30;;;;;;;;;;;22.40;56.90;;;;;;5068265;28;19952;-40
2024/03/07 07:56:56;;;;;;;;;;;22.40;56.90;;;;;;5074917;28;19912;-38
2024/03/07 07:59:22;;;;;;;;;;;22.40;56.90;;;;;;5075478;28;19924;-38
2024/03/07 08:01:48;;;;;;;;;;;22.30;56.90;;;;;;5077020;28;19930;-38
2024/03/07 08:04:14;;;;;;;;;;;22.30;56.90;;;;;;5074068;28;19938;-40
2024/03/07 08:06:40;;;;;;;;;;;22.30;56.90;;;;;;5078331;28;20050;-38
2024/03/07 08:09:09;;;;;;;;;;;22.40;56.90;;;;;;5077859;28;19944;-38
2024/03/07 08:11:36;;;;;;;;;;;22.40;56.80;;;;;;5074985;28;19917;-39
2024/03/07 08:14:02;;;;;;;;;;;22.40;56.80;;;;;;5074792;28;19988;-38
2024/03/07 08:16:29;;;;;;;;;;;22.30;56.80;;;;;;5072110;28;20007;-38
2024/03/07 08:18:55;;;;;;;;;;;22.30;56.80;;;;;;5068648;28;19943;-38
2024/03/07 08:21:23;;;;;;;;;;;22.30;56.90;;;;;;5073572;28;19916;-38
2024/03/07 08:23:49;;;;;;;;;;;22.30;56.80;;;;;;5071421;28;19912;-38
2024/03/07 08:26:15;;;;;;;;;;;22.40;56.70;;;;;;5069864;28;19923;-39
2024/03/07 08:28:41;;;;;;;;;;;22.40;56.70;;;;;;5071666;28;19912;-39
2024/03/07 08:31:09;;;;;;;;;;;22.40;56.70;;;;;;5072855;28;19948;-38
2024/03/07 08:33:35;;;;;;;;;;;22.30;56.70;;;;;;5070493;28;19923;-38
2024/03/07 08:36:01;;;;;;;;;;;22.30;56.70;;;;;;5075410;28;19968;-39
2024/03/07 08:38:26;;;;;;;;;;;22.30;56.70;;;;;;5069014;28;20006;-38
2024/03/07 08:40:52;;;;;;;;;;;22.30;56.70;;;;;;5079369;28;19924;-39
2024/03/07 08:43:18;;;;;;;;;;;22.40;56.60;;;;;;5073492;28;19913;-38
2024/03/07 08:45:44;;;;;;;;;;;22.40;56.60;;;;;;5074139;28;19912;-39
2024/03/07 08:48:11;;;;;;;;;;;22.30;56.60;;;;;;5062715;28;19944;-39
2024/03/07 08:50:37;;;;;;;;;;;22.30;56.60;;;;;;5071320;28;19954;-38
2024/03/07 08:53:04;;;;;;;;;;;22.30;56.60;;;;;;5082872;28;19908;-38
2024/03/07 08:55:30;;;;;;;;;;;22.30;56.70;;;;;;5074659;28;19909;-39
2024/03/07 08:57:56;;;;;;;;;;;22.30;56.60;;;;;;5082546;28;19977;-40
2024/03/07 09:00:23;;;;;;;;;;;22.40;56.60;;;;;;5083498;28;19956;-38
2024/03/07 09:02:58;;;;;;;;;;;22.40;56.50;;;;;;5076045;28;19912;-37
2024/03/07 09:05:24;;;;;;;;;;;22.30;56.50;;;;;;5082381;28;19970;-38
2024/03/07 09:07:53;;;;;;;;;;;22.30;56.50;;;;;;5082586;28;19913;-38
2024/03/07 09:10:19;;;;;;;;;;;22.30;56.60;;;;;;5081551;28;19909;-38
2024/03/07 09:12:45;;;;;;;;;;;22.30;56.50;;;;;;5075614;28;19938;-37
2024/03/07 09:15:16;;;;;;;;;;;22.30;56.50;;;;;;5075109;28;19952;-38
2024/03/07 09:17:43;;;;;;;;;;;22.40;56.50;;;;;;5078008;28;19916;-39
2024/03/07 09:20:14;;;;;;;;;;;22.30;56.50;;;;;;5064526;28;20317;-40
2024/03/07 09:22:43;;;;;;;;;;;22.30;56.50;;;;;;5067666;28;20037;-39
2024/03/07 09:25:10;;;;;;;;;;;22.30;56.50;;;;;;5077428;28;19912;-38
2024/03/07 09:27:36;;;;;;;;;;;22.30;56.50;;;;;;5072409;28;19917;-38
2024/03/07 09:30:02;;;;;;;;;;;22.30;56.50;;;;;;5070139;28;19909;-38
2024/03/07 09:32:32;;;;;;;;;;;22.30;56.40;;;;;;5078503;28;20440;-39
2024/03/07 09:34:58;;;;;;;;;;;22.30;56.40;;;;;;5074089;28;19919;-44
2024/03/07 09:37:25;;;;;;;;;;;22.30;56.40;;;;;;5075051;28;19912;-38
2024/03/07 09:39:51;;;;;;;;;;;22.30;56.40;;;;;;5080117;28;19917;-41
2024/03/07 09:42:17;;;;;;;;;;;22.20;56.40;;;;;;5075439;28;19912;-39
2024/03/07 09:44:43;;;;;;;;;;;22.30;56.40;;;;;;5067359;28;19972;-38
2024/03/07 09:47:11;;;;;;;;;;;22.30;56.30;;;;;;5066036;28;19981;-39
2024/03/07 09:49:37;;;;;;;;;;;22.30;56.30;;;;;;5078170;28;20458;-39
2024/03/07 09:52:08;;;;;;;;;;;22.30;56.30;;;;;;5078026;28;19908;-41
2024/03/07 09:54:34;;;;;;;;;;;22.30;56.30;;;;;;5073377;28;19995;-40
2024/03/07 09:57:02;;;;;;;;;;;22.20;56.40;;;;;;5072905;28;19983;-40
2024/03/07 09:59:28;;;;;;;;;;;22.30;56.40;;;;;;5077932;28;20538;-39
2024/03/07 10:01:54;;;;;;;;;;;22.30;56.30;;;;;;5078344;28;19913;-41
2024/03/07 10:04:23;;;;;;;;;;;22.30;56.20;;;;;;5075865;28;20001;-40
2024/03/07 10:06:49;;;;;;;;;;;22.30;56.30;;;;;;5081705;28;19912;-38
2024/03/07 10:09:15;;;;;;;;;;;22.30;56.20;;;;;;5076660;28;20458;-39
2024/03/07 10:11:43;;;;;;;;;;;22.20;56.20;;;;;;5080750;28;19983;-39
2024/03/07 10:14:10;;;;;;;;;;;22.20;56.20;;;;;;5077255;28;19931;-39
2024/03/07 10:16:36;;;;;;;;;;;22.30;56.30;;;;;;5072933;28;19928;-39
2024/03/07 10:19:05;;;;;;;;;;;22.30;56.20;;;;;;5066916;28;19938;-39
2024/03/07 10:21:33;;;;;;;;;;;22.30;56.20;;;;;;5076859;28;19920;-38
2024/03/07 10:24:06;;;;;;;;;;;22.30;56.20;;;;;;5075546;28;19919;-40
2024/03/07 10:26:35;;;;;;;;;;;22.20;56.10;;;;;;5078966;28;19912;-41
2024/03/07 10:29:01;;;;;;;;;;;22.20;56.20;;;;;;5071490;28;19912;-39
2024/03/07 10:31:28;;;;;;;;;;;22.30;56.20;;;;;;5066153;28;19912;-38
2024/03/07 10:33:57;;;;;;;;;;;22.30;56.20;;;;;;5077504;28;19951;-39
2024/03/07 10:36:24;;;;;;;;;;;22.30;56.10;;;;;;5077001;28;19997;-39
2024/03/07 10:38:49;;;;;;;;;;;22.30;56.20;;;;;;5066118;28;20288;-40
2024/03/07 10:41:15;;;;;;;;;;;22.20;56.10;;;;;;5067389;28;19947;-38
2024/03/07 10:43:42;;;;;;;;;;;22.20;56.20;;;;;;5067054;28;19959;-38
2024/03/07 10:46:08;;;;;;;;;;;22.20;56.20;;;;;;5073081;28;19915;-40
2024/03/07 10:48:38;;;;;;;;;;;22.30;56.20;;;;;;5081768;28;19912;-38
2024/03/07 10:51:14;;;;;;;;;;;22.30;56.10;;;;;;5081948;28;19944;-39
2024/03/07 10:53:47;;;;;;;;;;;22.30;56.10;;;;;;5082488;28;19918;-39
2024/03/07 10:56:14;;;;;;;;;;;22.30;56.20;;;;;;5083136;28;19958;-39
2024/03/07 10:59:04;;;;;;;;;;;22.20;56.20;;;;;;5077345;28;19913;-40
2024/03/07 11:01:50;;;;;;;;;;;22.20;56.30;;;;;;5076942;28;20394;-38
2024/03/07 11:04:18;;;;;;;;;;;22.20;56.50;;;;;;5058157;28;20011;-39
2024/03/07 11:06:44;;;;;;;;;;;22.20;56.60;;;;;;5040800;28;19950;-39
2024/03/07 11:09:10;;;;;;;;;;;22.30;56.50;;;;;;5060943;28;19919;-39
2024/03/07 11:11:38;;;;;;;;;;;22.30;56.50;;;;;;5060945;28;20278;-39
2024/03/07 11:14:04;;;;;;;;;;;22.30;56.50;;;;;;5061352;28;19908;-40
2024/03/07 11:16:30;;;;;;;;;;;22.30;56.50;;;;;;5060790;28;19912;-42
2024/03/07 11:19:14;;;;;;;;;;;22.20;56.40;;;;;;5040961;28;20181;-39
2024/03/07 11:21:40;;;;;;;;;;;22.20;56.50;;;;;;5076717;28;20608;-39
2024/03/07 11:24:06;;;;;;;;;;;22.20;56.40;;;;;;5059641;28;19999;-38
2024/03/07 11:26:32;;;;;;;;;;;22.30;56.40;;;;;;5059767;28;19940;-41
2024/03/07 11:28:58;;;;;;;;;;;22.30;56.40;;;;;;5043888;28;19909;-39
2024/03/07 11:31:27;;;;;;;;;;;22.30;56.30;;;;;;5060130;28;19958;-38
2024/03/07 11:34:11;;;;;;;;;;;22.30;56.30;;;;;;5076946;28;19916;-39
2024/03/07 11:36:49;;;;;;;;;;;22.20;56.20;;;;;;5057042;28;19947;-40
2024/03/07 11:39:36;;;;;;;;;;;22.20;56.20;;;;;;5072920;28;19921;-39
2024/03/07 11:42:06;;;;;;;;;;;22.20;56.30;;;;;;5066510;28;19961;-39
2024/03/07 11:44:34;;;;;;;;;;;22.20;56.20;;;;;;5080014;28;19920;-38
2024/03/07 11:47:08;;;;;;;;;;;22.30;56.80;;;;;;5082059;28;20416;-39
2024/03/07 11:49:35;;;;;;;;;;;22.20;56.20;;;;;;5080772;28;19909;-40
2024/03/07 11:52:04;;;;;;;;;;;22.20;56.10;;;;;;5069400;28;20385;-38
2024/03/07 11:54:31;;;;;;;;;;;22.20;56.20;;;;;;5074322;28;19909;-40
2024/03/07 11:56:57;;;;;;;;;;;22.20;56.20;;;;;;5081730;28;20368;-38
2024/03/07 11:59:23;;;;;;;;;;;22.20;56.20;;;;;;5080341;28;19912;-39
2024/03/07 12:01:49;;;;;;;;;;;22.20;56.30;;;;;;5079251;28;19958;-37
2024/03/07 12:04:15;;;;;;;;;;;22.20;56.20;;;;;;5073919;28;19908;-45
2024/03/07 12:06:50;;;;;;;;;;;22.20;56.20;;;;;;5077814;28;19919;-38
2024/03/07 12:09:23;;;;;;;;;;;22.20;56.20;;;;;;5077650;28;19912;-39
2024/03/07 12:11:52;;;;;;;;;;;22.20;56.20;;;;;;5081170;28;19920;-37
2024/03/07 12:14:19;;;;;;;;;;;22.20;56.30;;;;;;5081167;28;19912;-39
2024/03/07 12:16:45;;;;;;;;;;;22.10;56.20;;;;;;5080998;28;19922;-42
2024/03/07 12:19:11;;;;;;;;;;;22.20;56.20;;;;;;5077579;28;19923;-39
2024/03/07 12:21:38;;;;;;;;;;;22.20;56.40;;;;;;5073397;28;19916;-38
2024/03/07 12:24:12;;;;;;;;;;;22.30;57.30;;;;;;5081354;28;19919;-38
2024/03/07 12:26:37;;;;;;;;;;;22.20;58.30;;;;;;5081410;28;19913;-37
2024/03/07 12:29:11;;;;;;;;;;;22.20;58.60;;;;;;5081258;28;19926;-37
2024/03/07 12:31:41;;;;;;;;;;;22.20;59.10;;;;;;5079756;28;19951;-38
2024/03/07 12:34:09;;;;;;;;;;;22.20;60.30;;;;;;5077292;28;20077;-38
2024/03/07 12:36:45;;;;;;;;;;;22.20;60.70;;;;;;5082010;28;19912;-40
2024/03/07 12:39:35;;;;;;;;;;;22.30;61.60;;;;;;5069971;28;19928;-38
2024/03/07 12:42:04;;;;;;;;;;;22.40;62.40;;;;;;5063513;28;19908;-37
2024/03/07 12:44:42;;;;;;;;;;;22.40;61.70;;;;;;5073268;28;19916;-38
2024/03/07 12:47:10;;;;;;;;;;;22.40;61.60;;;;;;5063261;28;19920;-37
2024/03/07 12:49:36;;;;;;;;;;;22.40;61.30;;;;;;5062677;28;19919;-38
2024/03/07 12:52:02;;;;;;;;;;;22.40;61.20;;;;;;5069980;28;19909;-38
2024/03/07 12:54:29;;;;;;;;;;;22.40;61.00;;;;;;5075574;28;19908;-39
2024/03/07 12:56:56;;;;;;;;;;;22.40;60.80;;;;;;5077472;28;19962;-38
2024/03/07 12:59:23;;;;;;;;;;;22.30;60.90;;;;;;5068940;28;19920;-38
2024/03/07 13:01:49;;;;;;;;;;;22.30;60.70;;;;;;5072259;28;19916;-38
2024/03/07 13:04:15;;;;;;;;;;;22.30;60.20;;;;;;5073224;28;19916;-38
2024/03/07 13:06:46;;;;;;;;;;;22.40;59.70;;;;;;5069485;28;19954;-40
2024/03/07 13:09:13;;;;;;;;;;;22.40;59.30;;;;;;5067683;28;19913;-39
2024/03/07 13:11:46;;;;;;;;;;;22.40;59.00;;;;;;5081417;28;19912;-39
2024/03/07 13:14:12;;;;;;;;;;;22.30;58.40;;;;;;5077804;28;19974;-40
2024/03/07 13:16:38;;;;;;;;;;;22.30;58.20;;;;;;5077637;28;19979;-37
2024/03/07 13:19:04;;;;;;;;;;;22.20;57.90;;;;;;5076834;28;19912;-39
2024/03/07 13:21:35;;;;;;;;;;;22.30;57.70;;;;;;5075178;28;19912;-38
2024/03/07 13:24:01;;;;;;;;;;;22.30;57.30;;;;;;5075445;28;19920;-40
2024/03/07 13:26:30;;;;;;;;;;;22.30;57.30;;;;;;5074153;28;19976;-39
2024/03/07 13:28:55;;;;;;;;;;;22.30;57.30;;;;;;5071927;28;20027;-39
2024/03/07 13:31:22;;;;;;;;;;;22.30;57.30;;;;;;5080185;28;19908;-38
2024/03/07 13:33:51;;;;;;;;;;;22.30;57.40;;;;;;5073572;28;19916;-39
2024/03/07 13:36:22;;;;;;;;;;;22.20;57.30;;;;;;5076645;28;19940;-39
2024/03/07 13:38:52;;;;;;;;;;;22.20;57.30;;;;;;5079562;28;19916;-38
2024/03/07 13:41:19;;;;;;;;;;;22.30;57.20;;;;;;5077490;28;19912;-39
2024/03/07 13:43:45;;;;;;;;;;;22.30;57.10;;;;;;5076950;28;19934;-39
2024/03/07 13:46:12;;;;;;;;;;;22.30;57.00;;;;;;5077903;28;19917;-37
2024/03/07 13:48:38;;;;;;;;;;;22.30;57.00;;;;;;5081186;28;19948;-39
2024/03/07 13:51:08;;;;;;;;;;;22.20;56.90;;;;;;5079817;28;19912;-37
2024/03/07 13:53:36;;;;;;;;;;;22.20;56.90;;;;;;5075899;28;19909;-37
2024/03/07 13:56:14;;;;;;;;;;;22.20;56.80;;;;;;5075578;28;19928;-37
2024/03/07 13:58:49;;;;;;;;;;;22.20;56.90;;;;;;5073149;28;19962;-40
2024/03/07 14:01:24;;;;;;;;;;;22.20;56.80;;;;;;5072587;28;19980;-39
2024/03/07 14:04:11;;;;;;;;;;;22.30;56.80;;;;;;5075412;28;19918;-39
2024/03/07 14:06:52;;;;;;;;;;;22.30;56.80;;;;;;5079597;28;19919;-38
2024/03/07 14:09:33;;;;;;;;;;;22.30;56.70;;;;;;5082401;28;19909;-38
2024/03/07 14:12:17;;;;;;;;;;;22.30;56.70;;;;;;5070879;28;20485;-38
2024/03/07 14:14:43;;;;;;;;;;;22.30;56.80;;;;;;5076331;28;19912;-38
2024/03/07 14:17:19;;;;;;;;;;;22.20;56.80;;;;;;5076392;28;19913;-38
2024/03/07 14:19:52;;;;;;;;;;;22.30;56.90;;;;;;5076539;28;19918;-40
2024/03/07 14:22:21;;;;;;;;;;;22.30;56.70;;;;;;5071988;28;19955;-39